This is the latest recevied weather packets stored in our database for station/object DB0ROB-10. If no packets are shown the sender has not sent any weather packets the latest 10 day(s).
| Time | Temp. | Humidity | Pressure | Rain* | Wind** | Luminosity | Snow |
|---|---|---|---|---|---|---|---|
| 1777921296 | 13.89° C | 53% | 1013.4 hPa | - | - | - | - |
| 1777920395 | 13.89° C | 55% | 1013.4 hPa | - | - | - | - |
| 1777919495 | 13.89° C | 55% | 1013.5 hPa | - | - | - | - |
| 1777918595 | 14.44° C | 55% | 1013.6 hPa | - | - | - | - |
| 1777917695 | 14.44° C | 53% | 1013.5 hPa | - | - | - | - |
| 1777916795 | 15° C | 52% | 1013.1 hPa | - | - | - | - |
| 1777915895 | 16.11° C | 48% | 1013 hPa | - | - | - | - |
| 1777914995 | 16.11° C | 47% | 1013 hPa | - | - | - | - |
| 1777914094 | 16.67° C | 45% | 1013.2 hPa | - | - | - | - |
| 1777913193 | 17.22° C | 37% | 1013.1 hPa | - | - | - | - |
| 1777912293 | 17.22° C | 37% | 1013.2 hPa | - | - | - | - |
| 1777911392 | 16.67° C | 40% | 1013.2 hPa | - | - | - | - |
| 1777910492 | 17.78° C | 37% | 1013 hPa | - | - | - | - |
| 1777909591 | 18.33° C | 34% | 1013 hPa | - | - | - | - |
| 1777908691 | 17.78° C | 35% | 1013.1 hPa | - | - | - | - |
| 1777907791 | 18.89° C | 34% | 1013 hPa | - | - | - | - |
| 1777906890 | 18.89° C | 33% | 1013 hPa | - | - | - | - |
| 1777905989 | 18.89° C | 34% | 1013 hPa | - | - | - | - |
| 1777905089 | 19.44° C | 34% | 1013 hPa | - | - | - | - |
| 1777904189 | 20.56° C | 30% | 1013.1 hPa | - | - | - | - |
| 1777903289 | 19.44° C | 33% | 1013.2 hPa | - | - | - | - |
| 1777902394 | 20° C | 30% | 1013.2 hPa | - | - | - | - |
| 1777901494 | 18.89° C | 32% | 1013.4 hPa | - | - | - | - |
| 1777900594 | 19.44° C | 30% | 1013.6 hPa | - | - | - | - |
| 1777899694 | 20° C | 30% | 1013.7 hPa | - | - | - | - |
* Rain since midnight (hover to see other rain measurements)
** Current wind speed in m/s (hover to see current wind gust speed)